createdAt,value
2023-10-21T00:00:51.755Z,13.39
2023-10-21T00:05:53.414Z,13.37
2023-10-21T00:11:09.532Z,13.33
2023-10-21T00:16:12.429Z,13.13
2023-10-21T00:21:14.160Z,12.97
2023-10-21T00:26:18.919Z,13.02
2023-10-21T00:31:20.567Z,13.03
2023-10-21T00:36:22.337Z,13.00
2023-10-21T00:41:23.985Z,13.02
2023-10-21T00:46:27.763Z,13.04
2023-10-21T00:51:29.524Z,13.02
2023-10-21T00:56:31.154Z,12.95
2023-10-21T01:01:35.951Z,12.96
2023-10-21T01:06:37.637Z,12.95
2023-10-21T01:11:39.229Z,12.90
2023-10-21T01:16:40.841Z,12.84
2023-10-21T01:21:42.459Z,12.84
2023-10-21T01:26:44.086Z,12.73
2023-10-21T01:31:45.689Z,12.69
2023-10-21T01:36:48.222Z,12.62
2023-10-21T01:41:49.860Z,12.59
2023-10-21T01:46:51.463Z,12.60
2023-10-21T01:51:53.216Z,12.51
2023-10-21T01:56:55.032Z,12.51
2023-10-21T02:01:56.686Z,12.35
2023-10-21T02:06:58.305Z,12.44
2023-10-21T02:11:59.900Z,12.48
2023-10-21T02:17:01.544Z,12.41
2023-10-21T02:22:03.345Z,12.42
2023-10-21T02:27:06.184Z,12.45
2023-10-21T02:32:07.861Z,12.28
2023-10-21T02:37:10.090Z,12.21
2023-10-21T02:42:11.722Z,12.32
2023-10-21T02:47:13.811Z,12.26
2023-10-21T02:52:15.416Z,12.34
2023-10-21T02:57:17.170Z,12.38
2023-10-21T03:02:18.892Z,12.14
2023-10-21T03:07:20.568Z,12.11
2023-10-21T03:12:23.987Z,12.15
2023-10-21T03:17:25.718Z,12.20
2023-10-21T03:22:27.283Z,12.24
2023-10-21T03:27:28.869Z,12.29
2023-10-21T03:32:30.574Z,12.32
2023-10-21T03:37:32.218Z,12.20
2023-10-21T03:42:33.807Z,12.18
2023-10-21T03:47:35.624Z,12.27
2023-10-21T03:52:37.277Z,12.24
2023-10-21T03:57:38.916Z,12.25
2023-10-21T04:02:40.597Z,12.26
2023-10-21T04:07:42.198Z,12.32
2023-10-21T04:12:44.755Z,12.28
2023-10-21T04:17:49.696Z,12.27
2023-10-21T04:22:51.619Z,12.14
2023-10-21T04:27:53.436Z,12.12
2023-10-21T04:32:55.380Z,12.16
2023-10-21T04:37:57.734Z,12.18
2023-10-21T04:42:59.349Z,12.16
2023-10-21T04:48:01.085Z,12.09
2023-10-21T04:53:02.940Z,12.07
2023-10-21T04:58:05.551Z,12.10
2023-10-21T05:03:07.238Z,12.09
2023-10-21T05:08:08.907Z,12.10
2023-10-21T05:13:10.476Z,12.17
2023-10-21T05:18:12.252Z,12.00
2023-10-21T05:23:14.109Z,12.08
2023-10-21T05:28:15.793Z,12.24
2023-10-21T05:33:18.051Z,12.23
2023-10-21T05:38:19.746Z,12.28
2023-10-21T05:43:21.538Z,12.28
2023-10-21T05:48:23.834Z,12.35
2023-10-21T05:53:25.726Z,12.31
2023-10-21T05:58:33.059Z,12.26
2023-10-21T06:03:40.740Z,12.28
2023-10-21T06:08:42.555Z,12.29
2023-10-21T06:13:44.151Z,12.29
2023-10-21T06:18:46.471Z,12.25
2023-10-21T06:23:48.170Z,12.29
2023-10-21T06:28:49.774Z,12.19
2023-10-21T06:33:51.642Z,12.26
2023-10-21T06:38:53.367Z,12.33
2023-10-21T06:43:55.066Z,12.46
2023-10-21T06:48:56.788Z,12.36
2023-10-21T06:53:58.443Z,12.37
2023-10-21T06:59:01.020Z,12.52
2023-10-21T07:04:02.728Z,12.59
2023-10-21T07:09:04.613Z,12.67
2023-10-21T07:14:06.302Z,12.70
2023-10-21T07:19:07.964Z,12.79
2023-10-21T07:24:12.711Z,12.90
2023-10-21T07:29:14.340Z,12.87
2023-10-21T07:34:15.945Z,13.06
2023-10-21T07:39:19.676Z,13.25
2023-10-21T07:44:23.011Z,13.31
2023-10-21T07:49:25.958Z,13.57
2023-10-21T07:54:27.906Z,13.73
2023-10-21T07:59:29.598Z,13.94
2023-10-21T08:04:33.293Z,14.27
2023-10-21T08:09:37.170Z,14.53
2023-10-21T08:14:41.820Z,14.82
2023-10-21T08:19:43.511Z,15.09
2023-10-21T08:24:45.199Z,15.26
2023-10-21T08:29:48.096Z,15.51
2023-10-21T08:34:49.708Z,15.71
2023-10-21T08:39:51.446Z,15.95
2023-10-21T08:44:55.709Z,15.96
2023-10-21T08:49:57.945Z,15.97
2023-10-21T08:54:59.723Z,16.20
2023-10-21T09:00:01.499Z,16.45
2023-10-21T09:05:13.112Z,16.59
2023-10-21T09:10:15.471Z,16.83
2023-10-21T09:15:17.230Z,16.99
2023-10-21T09:20:20.217Z,17.25
2023-10-21T09:25:23.568Z,17.41
2023-10-21T09:30:30.015Z,17.57
2023-10-21T09:35:32.451Z,17.77
2023-10-21T09:40:34.049Z,17.68
2023-10-21T09:45:36.752Z,17.68
2023-10-21T09:50:43.930Z,17.82
2023-10-21T09:55:46.182Z,18.00
2023-10-21T10:00:49.111Z,18.17
2023-10-21T10:05:51.163Z,18.26
2023-10-21T10:10:56.895Z,18.22
2023-10-21T10:15:58.786Z,18.31
2023-10-21T10:21:02.033Z,18.29
2023-10-21T10:26:03.804Z,18.30
2023-10-21T10:31:05.560Z,18.38
2023-10-21T10:36:14.219Z,18.39
2023-10-21T10:41:20.152Z,18.53
2023-10-21T10:46:24.122Z,18.55
2023-10-21T10:51:28.965Z,18.56
2023-10-21T10:56:41.210Z,18.55
2023-10-21T11:01:43.167Z,18.60
2023-10-21T11:06:46.491Z,18.70
2023-10-21T11:12:03.520Z,18.76
2023-10-21T11:17:11.928Z,18.92
2023-10-21T11:22:26.880Z,19.09
2023-10-21T11:27:28.982Z,19.25
2023-10-21T11:32:32.671Z,19.26
2023-10-21T11:37:34.505Z,19.42
2023-10-21T11:42:36.573Z,19.45
2023-10-21T11:47:38.638Z,19.47
2023-10-21T11:52:45.528Z,19.56
2023-10-21T11:57:47.217Z,19.66
2023-10-21T12:02:48.871Z,19.72
2023-10-21T12:08:09.415Z,19.85
2023-10-21T12:13:11.067Z,19.94
2023-10-21T12:18:35.642Z,20.03
2023-10-21T12:24:05.500Z,19.99
2023-10-21T12:29:13.293Z,20.06
2023-10-21T12:34:33.234Z,20.15
2023-10-21T12:39:39.019Z,20.15
2023-10-21T12:44:48.755Z,20.22
2023-10-21T12:49:51.594Z,20.21
2023-10-21T12:54:53.351Z,20.27
2023-10-21T12:59:54.950Z,20.23
2023-10-21T13:04:56.644Z,20.27
2023-10-21T13:09:59.417Z,20.24
2023-10-21T13:15:03.674Z,20.29
2023-10-21T13:20:06.579Z,20.25
2023-10-21T13:25:18.843Z,20.20
2023-10-21T13:30:22.483Z,20.20
2023-10-21T13:35:26.770Z,20.25
2023-10-21T13:40:29.477Z,20.26
2023-10-21T13:45:33.812Z,20.25
2023-10-21T13:50:37.893Z,20.19
2023-10-21T13:55:46.373Z,20.20
2023-10-21T14:00:48.332Z,20.11
2023-10-21T14:05:51.722Z,19.93
2023-10-21T14:10:55.354Z,19.79
2023-10-21T14:16:02.532Z,19.68
2023-10-21T14:21:05.268Z,19.60
2023-10-21T14:26:07.776Z,19.48
2023-10-21T14:31:09.626Z,19.40
2023-10-21T14:36:14.160Z,19.21
2023-10-21T14:41:15.863Z,19.18
2023-10-21T14:46:17.515Z,19.15
2023-10-21T14:51:19.141Z,19.02
2023-10-21T14:56:22.134Z,18.92
2023-10-21T15:01:26.161Z,18.82
2023-10-21T15:06:30.944Z,18.74
2023-10-21T15:11:32.581Z,18.63
2023-10-21T15:16:34.249Z,18.57
2023-10-21T15:21:36.008Z,18.48
2023-10-21T15:26:37.717Z,18.32
2023-10-21T15:31:42.807Z,18.14
2023-10-21T15:36:44.535Z,18.02
2023-10-21T15:41:47.962Z,17.92
2023-10-21T15:46:49.588Z,17.77
2023-10-21T15:51:51.355Z,17.57
2023-10-21T15:56:52.966Z,17.48
2023-10-21T16:01:54.625Z,17.47
2023-10-21T16:06:56.245Z,17.43
2023-10-21T16:11:59.325Z,17.43
2023-10-21T16:17:02.618Z,17.42
2023-10-21T16:22:04.510Z,17.40
2023-10-21T16:27:06.496Z,17.30
2023-10-21T16:32:08.106Z,17.18
2023-10-21T16:37:09.700Z,17.06
2023-10-21T16:42:11.363Z,16.91
2023-10-21T16:47:15.437Z,16.82
2023-10-21T16:52:17.330Z,16.97
2023-10-21T16:57:18.968Z,17.05
2023-10-21T17:02:20.664Z,16.99
2023-10-21T17:07:22.372Z,16.92
2023-10-21T17:12:24.202Z,16.88
2023-10-21T17:17:26.325Z,16.85
2023-10-21T17:22:28.447Z,16.79
2023-10-21T17:27:30.072Z,16.79
2023-10-21T17:32:32.300Z,16.74
2023-10-21T17:37:34.010Z,16.74
2023-10-21T17:42:35.638Z,16.71
2023-10-21T17:47:37.989Z,16.71
2023-10-21T17:52:39.642Z,16.68
2023-10-21T17:57:41.610Z,16.61
2023-10-21T18:02:44.464Z,16.60
2023-10-21T18:07:46.172Z,16.61
2023-10-21T18:12:48.026Z,16.60
2023-10-21T18:17:49.692Z,16.53
2023-10-21T18:22:51.441Z,16.55
2023-10-21T18:27:56.192Z,16.63
2023-10-21T18:32:57.973Z,16.68
2023-10-21T18:38:00.547Z,16.69
2023-10-21T18:43:02.263Z,16.64
2023-10-21T18:48:04.293Z,16.58
2023-10-21T18:53:06.087Z,16.62
2023-10-21T18:58:07.680Z,16.63
2023-10-21T19:03:09.485Z,16.62
2023-10-21T19:08:11.093Z,16.55
2023-10-21T19:13:15.197Z,16.48
2023-10-21T19:18:16.797Z,16.41
2023-10-21T19:23:18.416Z,16.33
2023-10-21T19:28:21.739Z,16.28
2023-10-21T19:33:24.358Z,16.20
2023-10-21T19:38:26.537Z,16.13
2023-10-21T19:43:28.133Z,16.12
2023-10-21T19:48:30.453Z,16.07
2023-10-21T19:53:34.972Z,16.01
2023-10-21T19:58:39.574Z,16.03
2023-10-21T20:03:41.497Z,16.02
2023-10-21T20:08:43.312Z,15.92
2023-10-21T20:13:44.991Z,15.92
2023-10-21T20:18:46.875Z,15.87
2023-10-21T20:23:49.100Z,15.86
2023-10-21T20:28:50.757Z,15.88
2023-10-21T20:33:52.408Z,15.81
2023-10-21T20:38:54.182Z,15.73
2023-10-21T20:43:55.800Z,15.67
2023-10-21T20:48:57.471Z,15.62
2023-10-21T20:53:59.096Z,15.56
2023-10-21T20:59:02.197Z,15.43
2023-10-21T21:04:05.229Z,15.36
2023-10-21T21:09:09.051Z,15.27
2023-10-21T21:14:11.305Z,15.19
2023-10-21T21:19:13.218Z,15.10
2023-10-21T21:24:14.733Z,15.06
2023-10-21T21:29:16.178Z,15.02
2023-10-21T21:34:17.652Z,15.03
2023-10-21T21:39:22.992Z,15.04
2023-10-21T21:44:24.466Z,15.00
2023-10-21T21:49:25.915Z,14.90
2023-10-21T21:54:29.490Z,14.83
2023-10-21T21:59:31.219Z,14.79
2023-10-21T22:04:32.848Z,14.73
2023-10-21T22:09:35.195Z,14.73
2023-10-21T22:14:37.425Z,14.71
2023-10-21T22:19:39.255Z,14.67
2023-10-21T22:24:42.672Z,14.63
2023-10-21T22:29:45.774Z,14.62
2023-10-21T22:34:47.304Z,14.62
2023-10-21T22:39:48.765Z,14.64
2023-10-21T22:44:50.231Z,14.67
2023-10-21T22:49:51.799Z,14.64
2023-10-21T22:54:53.312Z,14.59
2023-10-21T22:59:57.739Z,14.47
2023-10-21T23:04:59.348Z,14.50
2023-10-21T23:10:01.272Z,14.64
2023-10-21T23:15:04.670Z,14.73
2023-10-21T23:20:06.835Z,14.84
2023-10-21T23:25:11.319Z,14.94
2023-10-21T23:30:15.165Z,14.98
2023-10-21T23:35:16.754Z,15.04
2023-10-21T23:40:18.331Z,15.12
2023-10-21T23:45:22.571Z,15.14
2023-10-21T23:50:24.326Z,15.17
2023-10-21T23:55:25.831Z,15.19
